Time;durP1;ratioP1;P1;durP2;ratioP2;P2;SDS_P1;SDS_P2;PMS_P1;PMS_P2;Temp;Humidity;BMP_temperature;BMP_pressure;BME280_temperature;BME280_humidity;BME280_pressure;Samples;Min_cycle;Max_cycle;Signal;HPM_P1;HPM_P2
2022/06/14 00:01:37;;;;;;;2.03;1.20;;;14.50;99.90;;;;;;4939321;29;20062;-79
2022/06/14 00:04:03;;;;;;;4.93;1.38;;;14.50;99.90;;;;;;4922205;29;20030;-79
2022/06/14 00:06:31;;;;;;;2.95;1.50;;;14.50;99.90;;;;;;4922189;29;20444;-79
2022/06/14 00:08:57;;;;;;;6.35;1.35;;;14.50;99.90;;;;;;4939156;29;20028;-79
2022/06/14 00:11:32;;;;;;;3.00;1.30;;;14.40;99.90;;;;;;4938766;29;20500;-79
2022/06/14 00:14:00;;;;;;;2.28;1.10;;;14.50;99.90;;;;;;4921935;29;20027;-80
2022/06/14 00:16:27;;;;;;;3.67;1.48;;;14.40;99.90;;;;;;4922173;29;20489;-79
2022/06/14 00:18:53;;;;;;;4.03;1.40;;;14.40;99.90;;;;;;4921717;29;20472;-80
2022/06/14 00:21:19;;;;;;;7.03;2.22;;;14.40;99.90;;;;;;4938901;29;20024;-80
2022/06/14 00:23:45;;;;;;;3.15;1.50;;;14.50;99.90;;;;;;4938509;29;20043;-79
2022/06/14 00:26:12;;;;;;;3.25;1.42;;;14.50;99.90;;;;;;4938871;29;20055;-80
2022/06/14 00:28:39;;;;;;;2.65;1.40;;;14.50;99.90;;;;;;4922003;29;20027;-80
2022/06/14 00:31:17;;;;;;;3.22;1.30;;;14.50;99.90;;;;;;4938679;29;20111;-80
2022/06/14 00:33:44;;;;;;;4.80;1.40;;;14.50;99.90;;;;;;4939027;29;20472;-80
2022/06/14 00:36:21;;;;;;;2.17;1.50;;;14.50;99.90;;;;;;4921522;29;20272;-80
2022/06/14 00:38:47;;;;;;;4.65;1.33;;;14.50;99.90;;;;;;4938528;29;20115;-80
2022/06/14 00:41:28;;;;;;;2.10;1.42;;;14.50;99.90;;;;;;4938236;29;20102;-80
2022/06/14 00:43:54;;;;;;;2.65;1.30;;;14.50;99.90;;;;;;4938618;29;20028;-80
2022/06/14 00:46:26;;;;;;;1.90;1.50;;;14.50;99.90;;;;;;4938418;29;20038;-80
2022/06/14 00:49:00;;;;;;;2.25;1.30;;;14.40;99.90;;;;;;4938458;29;20038;-80
2022/06/14 00:51:29;;;;;;;1.55;1.27;;;14.40;99.90;;;;;;4938417;29;20031;-79
2022/06/14 00:54:09;;;;;;;2.75;1.70;;;14.40;99.90;;;;;;4921374;29;20057;-79
2022/06/14 00:56:42;;;;;;;2.88;1.23;;;14.30;99.90;;;;;;4921336;29;20036;-79
2022/06/14 00:59:14;;;;;;;2.65;1.63;;;14.20;99.90;;;;;;4921723;29;20036;-80
2022/06/14 01:01:42;;;;;;;3.08;1.45;;;14.20;99.90;;;;;;4921248;29;20114;-79
2022/06/14 01:04:19;;;;;;;1.40;1.27;;;14.20;99.90;;;;;;4938131;29;20028;-79
2022/06/14 01:07:00;;;;;;;2.83;1.65;;;14.20;99.90;;;;;;4921346;29;20036;-80
2022/06/14 01:09:38;;;;;;;1.70;1.33;;;14.20;99.90;;;;;;4921143;29;20038;-79
2022/06/14 01:12:10;;;;;;;2.58;1.42;;;14.20;99.90;;;;;;4937874;29;20058;-79
2022/06/14 01:15:06;;;;;;;3.00;1.52;;;14.20;99.90;;;;;;4938007;29;20416;-79
2022/06/14 01:17:39;;;;;;;1.63;1.27;;;14.20;99.90;;;;;;4921278;29;20032;-80
2022/06/14 01:20:05;;;;;;;1.83;1.52;;;14.10;99.90;;;;;;4937478;29;20032;-80
2022/06/14 01:22:32;;;;;;;3.13;1.40;;;14.10;99.90;;;;;;4920412;29;20032;-79
2022/06/14 01:25:00;;;;;;;2.13;1.60;;;14.00;99.90;;;;;;4920603;29;20091;-80
2022/06/14 01:27:27;;;;;;;3.17;1.60;;;14.00;99.90;;;;;;4921033;29;20028;-79
2022/06/14 01:30:07;;;;;;;6.32;1.73;;;14.00;99.90;;;;;;4937848;29;20271;-79
2022/06/14 01:32:39;;;;;;;2.60;1.60;;;13.90;99.90;;;;;;4937656;29;20046;-79
2022/06/14 01:35:08;;;;;;;4.75;1.85;;;13.90;99.90;;;;;;4937306;29;20028;-80
2022/06/14 01:37:34;;;;;;;2.67;1.40;;;13.80;99.90;;;;;;4937540;29;20028;-79
2022/06/14 01:40:04;;;;;;;2.58;1.48;;;13.80;99.90;;;;;;4937408;29;20048;-79
2022/06/14 01:43:04;;;;;;;1.90;1.73;;;13.70;99.90;;;;;;4937133;29;20365;-79
2022/06/14 01:45:49;;;;;;;5.43;1.75;;;13.70;99.90;;;;;;4937158;29;20484;-80
2022/06/14 01:48:30;;;;;;;5.28;2.20;;;13.70;99.90;;;;;;4936712;29;20067;-79
2022/06/14 01:54:33;;;;;;;2.25;1.65;;;13.50;99.90;;;;;;4937005;29;20173;-79
2022/06/14 01:57:15;;;;;;;4.47;1.88;;;13.50;99.90;;;;;;4919885;29;20042;-80
2022/06/14 02:00:01;;;;;;;2.92;1.73;;;13.40;99.90;;;;;;4920068;29;20480;-79
2022/06/14 02:02:33;;;;;;;11.80;2.10;;;13.30;99.90;;;;;;4920096;29;20123;-79
2022/06/14 02:05:21;;;;;;;4.00;1.92;;;13.30;99.90;;;;;;4920248;29;20031;-79
2022/06/14 02:07:52;;;;;;;6.00;1.73;;;13.20;99.90;;;;;;4920246;29;20034;-79
2022/06/14 02:10:43;;;;;;;3.45;2.28;;;13.20;99.90;;;;;;4919990;29;20032;-79
2022/06/14 02:13:34;;;;;;;2.40;1.70;;;13.20;99.90;;;;;;4920259;29;20023;-79
2022/06/14 02:16:14;;;;;;;3.38;1.90;;;13.20;99.90;;;;;;4919890;29;20086;-78
2022/06/14 02:18:58;;;;;;;4.53;1.90;;;13.20;99.90;;;;;;4920103;29;20047;-80
2022/06/14 02:21:33;;;;;;;2.92;1.88;;;13.10;99.90;;;;;;4936858;29;20031;-79
2022/06/14 02:24:14;;;;;;;2.65;2.03;;;13.10;99.90;;;;;;4919868;29;20028;-80
2022/06/14 02:27:03;;;;;;;4.50;2.25;;;13.10;99.90;;;;;;4936571;29;20058;-79
2022/06/14 02:29:34;;;;;;;2.63;1.92;;;13.10;99.90;;;;;;4890813;29;20122;-79
2022/06/14 02:32:15;;;;;;;4.85;2.00;;;13.10;99.90;;;;;;4936992;29;20480;-80
2022/06/14 02:35:38;;;;;;;5.38;1.80;;;13.10;99.90;;;;;;4936728;29;20111;-80
2022/06/14 02:38:22;;;;;;;3.05;2.15;;;13.10;99.90;;;;;;4914559;29;20437;-80
2022/06/14 02:41:25;;;;;;;4.78;1.90;;;13.10;99.90;;;;;;4936971;29;20043;-79
2022/06/14 02:44:02;;;;;;;4.95;1.83;;;13.10;99.90;;;;;;4883764;29;20040;-79
2022/06/14 02:46:40;;;;;;;3.60;2.40;;;13.10;99.90;;;;;;4919738;29;20032;-79
2022/06/14 02:49:08;;;;;;;4.78;2.33;;;13.10;99.90;;;;;;4919426;29;20494;-79
2022/06/14 02:51:42;;;;;;;4.13;2.20;;;13.10;99.90;;;;;;4919559;29;20114;-79
2022/06/14 02:54:25;;;;;;;2.55;2.15;;;13.10;99.90;;;;;;4919422;29;20034;-79
2022/06/14 02:57:07;;;;;;;8.18;2.20;;;13.10;99.90;;;;;;4919558;29;20034;-79
2022/06/14 02:59:37;;;;;;;12.10;3.33;;;13.10;99.90;;;;;;4936293;29;20043;-79
2022/06/14 03:02:11;;;;;;;2.78;1.80;;;13.10;99.90;;;;;;4919328;29;20499;-78
2022/06/14 03:04:45;;;;;;;4.50;2.33;;;13.00;99.90;;;;;;4919781;29;20357;-79
2022/06/14 03:07:34;;;;;;;7.90;2.13;;;13.10;99.90;;;;;;4936289;29;20039;-79
2022/06/14 03:10:00;;;;;;;6.05;2.60;;;13.00;99.90;;;;;;4906711;29;20142;-79
2022/06/14 03:12:57;;;;;;;6.40;1.95;;;13.00;99.90;;;;;;4919715;29;20448;-79
2022/06/14 03:15:41;;;;;;;3.97;2.40;;;13.00;99.90;;;;;;4936400;29;20028;-78
2022/06/14 03:18:38;;;;;;;5.15;1.88;;;12.90;99.90;;;;;;4919170;29;20490;-79
2022/06/14 03:21:35;;;;;;;5.57;1.90;;;12.90;99.90;;;;;;4936281;29;20036;-78
2022/06/14 03:24:03;;;;;;;3.92;2.15;;;12.90;99.90;;;;;;4919099;29;20488;-79
2022/06/14 03:26:47;;;;;;;2.67;2.03;;;12.80;99.90;;;;;;4918799;29;20055;-79
2022/06/14 03:29:31;;;;;;;4.80;2.58;;;12.80;99.90;;;;;;4936513;29;20082;-79
2022/06/14 03:32:08;;;;;;;6.25;2.45;;;12.80;99.90;;;;;;4919181;29;20034;-79
2022/06/14 03:34:35;;;;;;;2.60;1.90;;;12.80;99.90;;;;;;4919302;29;20464;-80
2022/06/14 03:37:01;;;;;;;3.00;1.98;;;12.80;99.90;;;;;;4919062;29;20032;-79
2022/06/14 03:39:37;;;;;;;4.63;2.13;;;12.80;99.90;;;;;;4936037;29;20111;-79
2022/06/14 03:42:06;;;;;;;4.50;2.15;;;12.80;99.90;;;;;;4936052;29;20050;-79
2022/06/14 03:44:33;;;;;;;3.20;2.10;;;12.80;99.90;;;;;;4939845;29;20024;-79
2022/06/14 03:47:31;;;;;;;5.80;2.33;;;12.80;99.90;;;;;;4922440;29;20035;-79
2022/06/14 03:50:08;;;;;;;2.28;2.08;;;12.70;99.90;;;;;;4887290;29;20059;-79
2022/06/14 03:52:53;;;;;;;8.07;2.70;;;12.70;99.90;;;;;;4939480;29;20039;-79
2022/06/14 03:55:30;;;;;;;3.08;2.15;;;12.70;99.90;;;;;;4922376;29;20028;-78
2022/06/14 03:58:19;;;;;;;4.00;2.40;;;12.70;99.90;;;;;;4922236;29;20114;-79
2022/06/14 04:01:13;;;;;;;4.53;2.40;;;12.70;99.90;;;;;;4921949;29;20036;-79
2022/06/14 04:04:03;;;;;;;6.13;2.22;;;12.70;99.90;;;;;;4939237;29;20031;-78
2022/06/14 04:06:44;;;;;;;3.60;2.63;;;12.70;99.90;;;;;;4922639;29;20373;-78
2022/06/14 04:09:34;;;;;;;4.57;2.17;;;12.70;99.90;;;;;;4922100;29;20361;-78
2022/06/14 04:12:15;;;;;;;7.60;2.35;;;12.70;99.90;;;;;;4939112;29;20046;-65
2022/06/14 04:15:04;;;;;;;5.30;2.38;;;12.80;99.90;;;;;;4939240;29;20083;-66
2022/06/14 04:17:43;;;;;;;8.23;2.20;;;12.90;99.90;;;;;;4939080;29;20031;-78
2022/06/14 04:20:16;;;;;;;2.83;1.85;;;13.00;99.90;;;;;;4938477;29;20087;-79
2022/06/14 04:23:04;;;;;;;5.25;2.30;;;13.00;99.90;;;;;;4938679;29;20392;-79
2022/06/14 04:25:37;;;;;;;6.70;3.17;;;13.00;99.90;;;;;;4938505;29;20056;-79
2022/06/14 04:28:02;;;;;;;3.83;2.22;;;13.00;99.90;;;;;;4938504;29;20388;-79
2022/06/14 04:30:46;;;;;;;3.22;2.05;;;13.10;99.90;;;;;;4921596;29;20027;-79
2022/06/14 04:33:20;;;;;;;3.20;2.28;;;13.10;99.90;;;;;;4938283;29;20028;-78
2022/06/14 04:35:55;;;;;;;2.85;2.03;;;13.10;99.90;;;;;;4938773;29;20031;-77
2022/06/14 04:38:34;;;;;;;4.93;2.17;;;13.20;99.90;;;;;;4938358;29;20031;-77
2022/06/14 04:41:02;;;;;;;4.55;2.38;;;13.20;99.90;;;;;;4921403;29;20472;-78
2022/06/14 04:43:40;;;;;;;5.00;2.45;;;13.30;99.90;;;;;;4921570;29;20054;-73
2022/06/14 04:46:20;;;;;;;4.50;2.28;;;13.40;99.90;;;;;;4938456;29;20469;-73
2022/06/14 04:49:05;;;;;;;4.53;2.15;;;13.40;99.90;;;;;;4938390;29;20024;-74
2022/06/14 04:51:43;;;;;;;3.05;2.25;;;13.50;99.90;;;;;;4937991;29;20365;-74
2022/06/14 04:54:21;;;;;;;3.17;2.28;;;13.60;99.90;;;;;;4937338;29;20024;-74
2022/06/14 04:56:56;;;;;;;8.75;2.58;;;13.70;99.90;;;;;;4921304;29;20468;-73
2022/06/14 04:59:39;;;;;;;6.82;2.15;;;13.80;99.90;;;;;;4938082;29;20035;-72
2022/06/14 05:02:19;;;;;;;4.10;2.20;;;13.80;99.90;;;;;;4938358;29;20031;-73
2022/06/14 05:04:51;;;;;;;8.77;2.55;;;13.90;99.90;;;;;;4921445;29;20032;-74
2022/06/14 05:07:20;;;;;;;2.78;1.90;;;14.00;99.90;;;;;;4938262;29;20447;-74
2022/06/14 05:10:06;;;;;;;4.90;1.92;;;14.10;99.90;;;;;;4920770;29;20444;-74
2022/06/14 05:12:48;;;;;;;4.38;2.03;;;14.20;99.90;;;;;;4937904;29;20046;-74
2022/06/14 05:15:47;;;;;;;5.45;2.08;;;14.30;99.90;;;;;;4920771;29;20374;-74
2022/06/14 05:18:18;;;;;;;3.22;2.38;;;14.40;99.90;;;;;;4937701;29;20033;-74
2022/06/14 05:20:54;;;;;;;4.25;2.22;;;14.50;99.90;;;;;;4937853;29;20032;-74
2022/06/14 05:23:32;;;;;;;3.90;1.77;;;14.60;99.90;;;;;;4920460;29;20024;-74
2022/06/14 05:26:21;;;;;;;3.73;1.80;;;14.70;99.90;;;;;;4937868;29;20044;-74
2022/06/14 05:28:56;;;;;;;5.65;2.40;;;14.80;99.90;;;;;;4920503;29;20046;-74
2022/06/14 05:31:40;;;;;;;3.40;1.77;;;14.90;99.90;;;;;;4920661;29;20539;-73
2022/06/14 05:34:42;;;;;;;5.40;1.80;;;15.00;99.90;;;;;;4937322;29;20039;-74
2022/06/14 05:37:34;;;;;;;3.42;2.00;;;15.10;99.90;;;;;;4920977;29;20362;-73
2022/06/14 05:40:17;;;;;;;5.60;1.70;;;15.30;99.90;;;;;;4937075;29;20024;-74
2022/06/14 05:42:51;;;;;;;5.47;1.92;;;15.40;99.90;;;;;;4920218;29;20031;-74
2022/06/14 05:45:18;;;;;;;4.28;1.40;;;15.50;99.90;;;;;;4937574;29;20083;-74
2022/06/14 05:47:53;;;;;;;5.43;1.77;;;15.60;99.90;;;;;;4920057;29;20540;-74
2022/06/14 05:50:26;;;;;;;2.80;1.63;;;15.70;99.90;;;;;;4936868;29;20079;-74
2022/06/14 05:52:56;;;;;;;4.82;2.05;;;15.80;99.90;;;;;;4937411;29;20118;-75
2022/06/14 05:55:44;;;;;;;3.28;1.40;;;15.80;99.90;;;;;;4919954;29;20027;-75
2022/06/14 05:58:26;;;;;;;2.87;1.70;;;15.80;99.90;;;;;;4920228;29;20032;-75
2022/06/14 06:01:16;;;;;;;7.07;1.92;;;15.90;99.90;;;;;;4937056;29;20028;-75
2022/06/14 06:03:51;;;;;;;6.28;2.03;;;16.10;99.90;;;;;;4920113;29;20432;-75
2022/06/14 06:06:26;;;;;;;2.00;1.40;;;16.30;99.90;;;;;;4936785;29;20024;-75
2022/06/14 06:09:03;;;;;;;4.28;1.63;;;16.50;99.90;;;;;;4936993;29;20079;-75
2022/06/14 06:11:33;;;;;;;4.90;1.30;;;16.70;99.90;;;;;;4920045;29;20060;-75
2022/06/14 06:14:11;;;;;;;6.18;1.48;;;16.80;99.90;;;;;;4919890;29;20024;-75
2022/06/14 06:17:03;;;;;;;4.55;2.25;;;16.90;99.90;;;;;;4937198;29;20036;-75
2022/06/14 06:19:49;;;;;;;3.55;1.45;;;17.10;99.90;;;;;;4937016;29;20036;-76
2022/06/14 06:22:44;;;;;;;3.63;1.55;;;17.50;99.90;;;;;;4937004;29;20098;-76
2022/06/14 06:25:17;;;;;;;2.80;1.30;;;18.00;98.90;;;;;;4883514;29;20044;-76
2022/06/14 06:28:23;;;;;;;1.33;1.15;;;18.50;94.10;;;;;;4920066;29;20032;-75
2022/06/14 06:30:59;;;;;;;5.22;1.25;;;18.80;93.80;;;;;;4936583;29;20137;-75
2022/06/14 06:33:27;;;;;;;5.75;1.55;;;19.10;90.00;;;;;;4936293;29;20106;-76
2022/06/14 06:36:11;;;;;;;2.42;1.00;;;19.20;86.50;;;;;;4936612;29;20083;-75
2022/06/14 06:39:27;;;;;;;5.57;1.23;;;19.40;90.30;;;;;;4919373;29;20472;-76
2022/06/14 06:41:56;;;;;;;6.53;1.88;;;19.50;82.60;;;;;;4840882;29;20038;-76
2022/06/14 06:44:43;;;;;;;6.25;1.50;;;19.60;84.20;;;;;;4826183;29;20151;-76
2022/06/14 06:47:13;;;;;;;2.60;1.13;;;19.60;82.40;;;;;;4825680;29;20428;-77
2022/06/14 06:50:02;;;;;;;1.98;1.00;;;19.80;81.30;;;;;;4841075;29;20061;-76
2022/06/14 06:53:00;;;;;;;8.32;1.58;;;19.90;80.10;;;;;;4840915;29;20048;-75
2022/06/14 06:55:51;;;;;;;6.72;1.52;;;19.90;80.10;;;;;;4840769;29;20038;-75
2022/06/14 06:58:28;;;;;;;3.00;1.50;;;20.10;77.50;;;;;;4816564;29;20046;-75
2022/06/14 07:00:59;;;;;;;4.25;1.00;;;20.20;77.50;;;;;;4840790;29;20050;-76
2022/06/14 07:03:36;;;;;;;6.32;1.52;;;20.10;76.60;;;;;;4840617;29;20034;-75
2022/06/14 07:06:05;;;;;;;2.42;1.15;;;19.90;77.80;;;;;;4840710;29;20050;-75
2022/06/14 07:08:34;;;;;;;5.55;1.13;;;20.10;80.20;;;;;;4825255;29;20418;-76
2022/06/14 07:11:00;;;;;;;2.20;1.80;;;20.40;79.10;;;;;;4840568;29;20038;-74
2022/06/14 07:13:43;;;;;;;3.65;1.25;;;20.90;78.00;;;;;;4920404;29;20385;-74
2022/06/14 07:16:26;;;;;;;2.38;1.10;;;21.20;74.30;;;;;;4935927;29;20365;-74
2022/06/14 07:19:24;;;;;;;2.25;1.17;;;21.10;72.30;;;;;;4922114;29;20448;-76
2022/06/14 07:21:55;;;;;;;4.05;1.40;;;20.80;72.80;;;;;;4940072;29;20094;-76
2022/06/14 07:24:34;;;;;;;2.55;1.27;;;20.90;75.00;;;;;;4922683;29;20042;-76
2022/06/14 07:27:04;;;;;;;3.60;1.33;;;21.10;73.90;;;;;;4940303;29;20040;-74
2022/06/14 07:29:53;;;;;;;2.70;1.23;;;21.20;74.00;;;;;;4939722;29;20146;-74
2022/06/14 07:32:19;;;;;;;;;;;21.40;73.20;;;;;;4940088;29;20027;-74
2022/06/14 07:34:45;;;;;;;3.58;1.20;;;21.50;70.20;;;;;;4922560;29;20256;-74
2022/06/14 07:37:15;;;;;;;4.38;1.52;;;21.70;69.50;;;;;;4939836;29;20055;-74
2022/06/14 07:40:02;;;;;;;5.20;1.08;;;21.80;66.60;;;;;;4939518;29;20040;-74
2022/06/14 07:42:35;;;;;;;2.67;1.48;;;21.90;66.80;;;;;;4939594;29;20031;-74
2022/06/14 07:45:23;;;;;;;7.65;1.52;;;21.70;66.90;;;;;;4939204;29;20028;-74
2022/06/14 07:47:52;;;;;;;4.28;1.17;;;21.60;66.10;;;;;;4922583;29;20420;-73
2022/06/14 07:50:27;;;;;;;5.95;1.30;;;21.70;65.30;;;;;;4939448;29;20032;-76
2022/06/14 07:53:00;;;;;;;2.15;1.50;;;21.50;66.10;;;;;;4939349;29;20035;-75
2022/06/14 07:55:33;;;;;;;3.83;1.35;;;21.50;65.20;;;;;;4939264;29;20031;-74
2022/06/14 07:58:04;;;;;;;2.85;1.30;;;21.50;66.10;;;;;;4922124;29;20392;-74
2022/06/14 08:03:44;;;;;;;3.85;1.23;;;22.10;65.40;;;;;;4938968;29;20495;-73
2022/06/14 08:06:35;;;;;;;6.18;1.77;;;22.20;63.40;;;;;;4922149;29;20111;-73
2022/06/14 08:09:12;;;;;;;3.10;1.00;;;22.30;64.40;;;;;;4922184;29;20074;-73
2022/06/14 08:11:54;;;;;;;2.88;1.33;;;22.30;62.90;;;;;;4922203;29;20028;-73
2022/06/14 08:14:37;;;;;;;2.55;1.17;;;22.20;63.50;;;;;;4939187;29;20115;-73
2022/06/14 08:17:08;;;;;;;5.45;1.25;;;22.40;63.50;;;;;;4938990;29;20032;-73
2022/06/14 08:19:53;;;;;;;3.90;1.17;;;22.50;62.10;;;;;;4922079;29;20036;-74
2022/06/14 08:22:29;;;;;;;5.05;1.48;;;22.50;63.00;;;;;;4938012;29;20048;-73
2022/06/14 08:25:00;;;;;;;2.72;1.25;;;22.60;61.90;;;;;;4921961;29;20028;-73
2022/06/14 08:27:36;;;;;;;3.63;1.40;;;22.80;59.60;;;;;;4921739;29;20038;-73
2022/06/14 08:30:08;;;;;;;4.18;1.25;;;22.70;59.10;;;;;;4938712;29;20038;-76
2022/06/14 08:33:00;;;;;;;4.90;1.40;;;22.40;59.40;;;;;;4921845;29;20064;-76
2022/06/14 08:35:46;;;;;;;4.88;1.15;;;22.20;60.50;;;;;;4938696;29;20024;-73
2022/06/14 08:38:17;;;;;;;5.47;1.70;;;22.60;62.90;;;;;;4938642;29;20039;-76
2022/06/14 08:40:54;;;;;;;2.65;0.98;;;23.50;61.40;;;;;;4938514;29;20036;-76
2022/06/14 08:43:26;;;;;;;4.85;1.70;;;24.10;58.20;;;;;;4921809;29;20118;-77
2022/06/14 08:45:54;;;;;;;5.25;1.55;;;24.20;55.20;;;;;;4921643;29;20114;-76
2022/06/14 08:48:26;;;;;;;2.30;1.25;;;24.50;56.70;;;;;;4921392;29;20472;-77
2022/06/14 08:51:30;;;;;;;3.58;1.35;;;24.60;52.40;;;;;;4921306;29;20361;-77
2022/06/14 08:54:13;;;;;;;6.68;1.65;;;24.60;51.70;;;;;;4842588;29;20042;-76
2022/06/14 08:57:08;;;;;;;3.70;1.45;;;24.00;54.20;;;;;;4842378;29;20475;-76
2022/06/14 08:59:50;;;;;;;8.60;1.20;;;24.40;53.90;;;;;;4917340;29;20118;-76
2022/06/14 09:02:27;;;;;;;4.35;1.38;;;24.60;54.10;;;;;;4938423;29;20110;-76
2022/06/14 09:05:26;;;;;;;4.55;1.50;;;24.80;50.60;;;;;;4921105;29;20038;-76
2022/06/14 09:08:00;;;;;;;3.70;1.15;;;24.70;51.60;;;;;;4938037;29;20032;-76
2022/06/14 09:11:03;;;;;;;4.03;1.88;;;25.30;52.60;;;;;;4938280;29;20480;-76
2022/06/14 09:13:58;;;;;;;1.90;1.20;;;25.00;51.80;;;;;;4937939;29;20354;-76
2022/06/14 09:16:53;;;;;;;5.80;1.40;;;25.30;53.00;;;;;;4921039;29;20039;-76
2022/06/14 09:19:24;;;;;;;4.07;1.25;;;25.40;51.10;;;;;;4895299;29;20048;-76
2022/06/14 09:22:02;;;;;;;5.07;1.10;;;25.10;51.80;;;;;;4920776;29;20047;-76
2022/06/14 09:24:54;;;;;;;2.53;1.25;;;24.60;53.80;;;;;;4937500;29;20115;-76
2022/06/14 09:27:29;;;;;;;5.20;1.20;;;24.70;53.30;;;;;;4937539;29;20411;-76
2022/06/14 09:30:20;;;;;;;2.65;1.30;;;25.20;53.00;;;;;;4921090;29;20387;-76
2022/06/14 09:35:38;;;;;;;4.55;1.30;;;26.50;49.30;;;;;;4937568;29;20039;-76
2022/06/14 09:38:21;;;;;;;7.18;1.20;;;26.80;48.40;;;;;;4937073;29;20361;-77
2022/06/14 09:41:18;;;;;;;2.80;1.65;;;27.30;49.00;;;;;;4937338;29;20115;-77
2022/06/14 09:43:47;;;;;;;2.58;1.85;;;27.70;47.00;;;;;;4920467;29;20069;-77
2022/06/14 09:46:12;;;;;;;;;;;28.20;46.30;;;;;;4937336;29;20031;-77
2022/06/14 09:48:56;;;;;;;2.20;1.20;;;28.50;46.70;;;;;;4919905;29;20441;-77
2022/06/14 09:51:22;;;;;;;4.10;1.50;;;28.10;44.90;;;;;;4920136;29;20031;-76
2022/06/14 09:53:56;;;;;;;4.18;1.98;;;27.30;44.50;;;;;;4920136;29;20032;-76
2022/06/14 09:56:53;;;;;;;2.60;1.38;;;26.60;46.30;;;;;;4936903;29;20062;-76
2022/06/14 09:59:30;;;;;;;5.32;1.80;;;26.30;46.10;;;;;;4937118;29;20039;-76
2022/06/14 10:02:14;;;;;;;4.28;1.40;;;26.00;47.10;;;;;;4920044;29;20027;-76
2022/06/14 10:05:04;;;;;;;3.20;1.33;;;26.50;48.00;;;;;;4936759;29;20380;-76
2022/06/14 10:07:52;;;;;;;3.45;1.70;;;27.00;47.80;;;;;;4937259;29;20023;-76
2022/06/14 10:10:25;;;;;;;;;;;27.10;46.20;;;;;;4907622;29;20039;-76
2022/06/14 10:13:22;;;;;;;10.85;2.03;;;26.80;47.40;;;;;;4919817;29;19913;-76
2022/06/14 10:15:47;;;;;;;4.55;1.50;;;27.10;47.30;;;;;;4919756;29;20038;-77
2022/06/14 10:18:14;;;;;;;3.35;1.60;;;27.30;47.00;;;;;;4936514;29;20027;-76
2022/06/14 10:20:49;;;;;;;2.78;1.55;;;27.50;46.00;;;;;;4919637;29;20093;-76
2022/06/14 10:23:31;;;;;;;4.13;1.80;;;27.50;46.00;;;;;;4919954;29;20100;-76
2022/06/14 10:29:16;;;;;;;3.38;1.50;;;28.30;44.60;;;;;;4917594;29;20426;-77
2022/06/14 10:32:20;;;;;;;4.35;1.42;;;28.10;43.50;;;;;;4893766;29;20369;-77
2022/06/14 10:35:10;;;;;;;3.95;1.88;;;27.90;45.60;;;;;;4878432;29;20123;-76
2022/06/14 10:38:02;;;;;;;2.20;0.90;;;27.60;44.70;;;;;;4917635;29;20024;-76
2022/06/14 10:40:45;;;;;;;4.55;1.30;;;27.40;44.30;;;;;;4900697;29;20037;-76
2022/06/14 10:43:33;;;;;;;4.35;1.48;;;27.20;44.20;;;;;;4900395;29;20047;-76
2022/06/14 10:46:09;;;;;;;3.17;1.45;;;26.90;44.30;;;;;;4916318;29;20032;-76
2022/06/14 10:48:34;;;;;;;4.50;1.75;;;26.70;45.60;;;;;;4917704;29;20028;-76
2022/06/14 10:51:21;;;;;;;2.50;1.35;;;26.80;44.20;;;;;;4900361;29;20028;-76
2022/06/14 10:54:16;;;;;;;3.30;1.70;;;26.50;43.90;;;;;;4903749;29;20032;-76
2022/06/14 10:56:56;;;;;;;5.53;1.50;;;26.50;45.00;;;;;;4905037;29;20063;-76
2022/06/14 10:59:55;;;;;;;3.80;1.50;;;26.30;45.90;;;;;;4921434;29;20032;-76
2022/06/14 11:02:48;;;;;;;5.10;1.80;;;26.20;44.00;;;;;;4921899;29;20040;-76
2022/06/14 11:05:13;;;;;;;2.70;1.45;;;26.10;46.50;;;;;;4920988;29;20063;-74
2022/06/14 11:07:53;;;;;;;4.65;1.55;;;26.00;46.70;;;;;;4904158;29;20056;-74
2022/06/14 11:10:39;;;;;;;2.85;1.35;;;25.70;46.60;;;;;;4921150;29;20042;-74
2022/06/14 11:13:37;;;;;;;2.25;1.42;;;25.10;48.70;;;;;;4903488;29;20036;-74
2022/06/14 11:16:21;;;;;;;2.50;1.25;;;25.20;49.50;;;;;;4903759;29;20028;-74
2022/06/14 11:19:37;;;;;;;5.07;1.40;;;26.20;47.00;;;;;;4903996;29;20036;-76
2022/06/14 11:22:34;;;;;;;4.22;1.50;;;27.70;46.70;;;;;;4904070;29;20035;-77
2022/06/14 11:25:19;;;;;;;4.40;1.42;;;28.50;43.40;;;;;;4889679;29;20087;-77
2022/06/14 11:28:12;;;;;;;4.90;1.42;;;28.40;44.80;;;;;;4939915;29;20024;-76
2022/06/14 11:30:40;;;;;;;1.38;1.13;;;28.70;44.30;;;;;;4939860;29;20047;-77
2022/06/14 11:33:15;;;;;;;2.10;1.45;;;29.20;41.70;;;;;;4939606;29;20027;-77
2022/06/14 11:36:08;;;;;;;5.10;1.27;;;29.10;41.00;;;;;;4939567;29;20024;-77
2022/06/14 11:38:54;;;;;;;2.53;1.40;;;29.10;42.00;;;;;;4939519;29;20110;-76
2022/06/14 11:41:23;;;;;;;2.40;1.20;;;28.50;42.00;;;;;;4939964;29;20064;-77
2022/06/14 11:44:14;;;;;;;4.90;1.40;;;28.00;43.30;;;;;;4939185;29;20030;-76
2022/06/14 11:47:01;;;;;;;1.80;1.33;;;27.80;43.60;;;;;;4923163;29;20129;-76
2022/06/14 11:49:51;;;;;;;1.67;1.13;;;27.80;43.60;;;;;;4939455;29;20032;-77
2022/06/14 11:52:35;;;;;;;2.78;1.30;;;27.90;44.80;;;;;;4922290;29;20031;-77
2022/06/14 11:55:51;;;;;;;3.50;1.55;;;27.90;45.40;;;;;;4922278;29;20115;-76
2022/06/14 11:58:53;;;;;;;5.40;1.45;;;28.50;45.50;;;;;;4932797;29;20373;-77
2022/06/14 12:01:28;;;;;;;2.90;1.25;;;29.50;42.80;;;;;;4922023;29;20032;-77
2022/06/14 12:04:13;;;;;;;2.95;1.35;;;28.80;43.70;;;;;;4938916;29;20028;-76
2022/06/14 12:06:44;;;;;;;5.35;1.13;;;28.90;43.60;;;;;;4939129;29;20055;-76
2022/06/14 12:09:40;;;;;;;3.50;1.20;;;29.40;42.90;;;;;;4939266;29;20114;-77
2022/06/14 12:12:36;;;;;;;1.52;0.98;;;29.50;42.70;;;;;;4922233;29;20023;-77
2022/06/14 12:15:15;;;;;;;6.80;1.50;;;29.30;42.40;;;;;;4898005;29;20047;-78
2022/06/14 12:17:47;;;;;;;3.30;1.30;;;29.40;40.90;;;;;;4922152;29;20052;-77
2022/06/14 12:20:22;;;;;;;3.35;1.45;;;29.50;41.60;;;;;;4938947;29;20036;-77
2022/06/14 12:22:50;;;;;;;2.25;1.40;;;29.30;41.00;;;;;;4921796;29;20036;-77
2022/06/14 12:28:28;;;;;;;4.30;1.13;;;27.50;44.60;;;;;;4938965;29;20055;-77
2022/06/14 12:31:04;;;;;;;3.92;1.00;;;27.30;43.80;;;;;;4921489;29;20067;-77
2022/06/14 12:33:43;;;;;;;1.60;0.95;;;28.30;44.10;;;;;;4939015;29;20023;-76
2022/06/14 12:36:27;;;;;;;;;;;28.60;42.10;;;;;;4939228;29;20030;-77
2022/06/14 12:38:56;;;;;;;3.05;1.95;;;29.20;42.00;;;;;;4938627;29;19911;-77
2022/06/14 12:41:31;;;;;;;3.08;1.13;;;29.70;41.20;;;;;;4938394;29;20044;-78
2022/06/14 12:44:11;;;;;;;4.50;1.40;;;30.50;41.60;;;;;;4938523;29;20363;-80
2022/06/14 12:46:42;;;;;;;4.60;1.15;;;30.90;41.30;;;;;;4921661;29;20487;-80
2022/06/14 12:49:23;;;;;;;3.00;1.13;;;31.20;39.50;;;;;;4938366;29;20078;-78
2022/06/14 12:52:03;;;;;;;2.95;1.27;;;31.20;38.60;;;;;;4938307;29;20023;-77
2022/06/14 12:54:44;;;;;;;6.00;1.38;;;31.10;39.40;;;;;;4938138;29;20437;-77
2022/06/14 12:57:38;;;;;;;2.70;1.08;;;30.90;39.00;;;;;;4918087;29;20027;-79
2022/06/14 13:00:12;;;;;;;3.33;1.30;;;30.10;40.20;;;;;;4920729;29;20099;-79
2022/06/14 13:02:56;;;;;;;2.85;1.08;;;29.60;40.60;;;;;;4920962;29;20039;-78
2022/06/14 13:05:30;;;;;;;3.42;1.20;;;29.90;39.80;;;;;;4937795;29;20024;-78
2022/06/14 13:08:26;;;;;;;2.25;1.20;;;29.70;40.50;;;;;;4921214;29;20024;-78
2022/06/14 13:11:13;;;;;;;4.38;1.10;;;30.00;40.40;;;;;;4920489;29;20039;-78
2022/06/14 13:14:11;;;;;;;2.30;1.00;;;29.40;41.50;;;;;;4937993;29;20061;-78
2022/06/14 13:17:00;;;;;;;2.00;1.15;;;29.50;41.60;;;;;;4903120;29;20047;-78
2022/06/14 13:19:39;;;;;;;3.25;1.58;;;29.50;41.20;;;;;;4937558;29;20031;-78
2022/06/14 13:22:14;;;;;;;2.22;1.23;;;29.30;42.10;;;;;;4937482;29;20115;-78
2022/06/14 13:25:01;;;;;;;3.05;1.25;;;29.40;41.40;;;;;;4920780;29;20091;-78
2022/06/14 13:28:10;;;;;;;1.10;1.00;;;29.70;41.60;;;;;;4938063;29;20036;-79
2022/06/14 13:30:46;;;;;;;2.42;1.20;;;30.60;40.30;;;;;;4859752;29;20491;-80
2022/06/14 13:33:42;;;;;;;2.45;1.20;;;31.30;38.80;;;;;;4860182;29;20047;-79
2022/06/14 13:36:23;;;;;;;4.63;1.15;;;31.60;38.10;;;;;;4844556;29;20051;-80
2022/06/14 13:38:56;;;;;;;5.25;1.45;;;31.70;37.50;;;;;;4844748;29;20590;-80
2022/06/14 13:42:00;;;;;;;5.50;1.38;;;31.20;38.40;;;;;;4860042;29;20098;-79
2022/06/14 13:44:43;;;;;;;2.85;1.05;;;30.20;38.60;;;;;;4859984;29;20034;-81
2022/06/14 13:47:22;;;;;;;3.03;1.20;;;30.50;40.80;;;;;;4860214;29;20037;-79
2022/06/14 13:50:06;;;;;;;2.47;1.20;;;30.60;39.20;;;;;;4859807;29;20522;-79
2022/06/14 13:53:03;;;;;;;3.85;1.30;;;31.00;39.40;;;;;;4843751;29;20025;-80
2022/06/14 13:55:43;;;;;;;2.38;1.15;;;30.30;38.60;;;;;;4844887;29;20694;-79
2022/06/14 13:58:30;;;;;;;6.90;2.00;;;29.80;40.00;;;;;;4844150;29;20029;-78
2022/06/14 14:01:07;;;;;;;5.10;1.23;;;29.80;40.00;;;;;;4876586;29;20401;-79
2022/06/14 14:03:55;;;;;;;3.40;1.00;;;29.90;39.90;;;;;;4917350;29;20361;-79
2022/06/14 14:06:41;;;;;;;2.90;1.10;;;30.30;40.20;;;;;;4900513;29;20476;-79
2022/06/14 14:09:28;;;;;;;3.20;1.30;;;30.60;40.60;;;;;;4917965;29;20043;-79
2022/06/14 14:12:03;;;;;;;2.92;1.27;;;30.60;39.30;;;;;;4918193;29;20111;-79